sensor_id;sensor_type;location;lat;lon;timestamp;P1;durP1;ratioP1;P2;durP2;ratioP2
54679;SDS011;40578;53.178;5.846;2023-07-13T00:00:27;6.55;;;2.10;;
54679;SDS011;40578;53.178;5.846;2023-07-13T00:02:53;5.87;;;2.10;;
54679;SDS011;40578;53.178;5.846;2023-07-13T00:05:19;6.67;;;1.90;;
54679;SDS011;40578;53.178;5.846;2023-07-13T00:07:46;7.70;;;1.98;;
54679;SDS011;40578;53.178;5.846;2023-07-13T00:10:12;8.55;;;1.75;;
54679;SDS011;40578;53.178;5.846;2023-07-13T00:12:37;9.40;;;2.10;;
54679;SDS011;40578;53.178;5.846;2023-07-13T00:15:05;7.80;;;1.85;;
54679;SDS011;40578;53.178;5.846;2023-07-13T00:17:36;6.55;;;2.33;;
54679;SDS011;40578;53.178;5.846;2023-07-13T00:20:03;4.88;;;1.40;;
54679;SDS011;40578;53.178;5.846;2023-07-13T00:22:29;8.85;;;2.03;;
54679;SDS011;40578;53.178;5.846;2023-07-13T00:24:55;5.80;;;1.63;;
54679;SDS011;40578;53.178;5.846;2023-07-13T00:27:21;4.85;;;1.52;;
54679;SDS011;40578;53.178;5.846;2023-07-13T00:29:47;5.95;;;1.40;;
54679;SDS011;40578;53.178;5.846;2023-07-13T00:32:13;4.60;;;1.40;;
54679;SDS011;40578;53.178;5.846;2023-07-13T00:34:39;8.20;;;1.53;;
54679;SDS011;40578;53.178;5.846;2023-07-13T00:37:05;4.20;;;1.10;;
54679;SDS011;40578;53.178;5.846;2023-07-13T00:39:33;2.95;;;1.00;;
54679;SDS011;40578;53.178;5.846;2023-07-13T00:41:59;2.28;;;0.82;;
54679;SDS011;40578;53.178;5.846;2023-07-13T00:44:25;4.05;;;1.17;;
54679;SDS011;40578;53.178;5.846;2023-07-13T00:46:51;5.37;;;1.20;;
54679;SDS011;40578;53.178;5.846;2023-07-13T00:49:18;4.60;;;1.05;;
54679;SDS011;40578;53.178;5.846;2023-07-13T00:51:53;2.90;;;0.95;;
54679;SDS011;40578;53.178;5.846;2023-07-13T00:54:24;3.80;;;0.98;;
54679;SDS011;40578;53.178;5.846;2023-07-13T00:57:02;4.03;;;1.08;;
54679;SDS011;40578;53.178;5.846;2023-07-13T00:59:30;4.18;;;1.00;;
54679;SDS011;40578;53.178;5.846;2023-07-13T01:01:58;5.63;;;1.30;;
54679;SDS011;40578;53.178;5.846;2023-07-13T01:04:24;4.07;;;1.00;;
54679;SDS011;40578;53.178;5.846;2023-07-13T01:06:50;5.13;;;1.65;;
54679;SDS011;40578;53.178;5.846;2023-07-13T01:09:17;3.88;;;1.02;;
54679;SDS011;40578;53.178;5.846;2023-07-13T01:11:43;1.88;;;0.73;;
54679;SDS011;40578;53.178;5.846;2023-07-13T01:14:10;5.38;;;0.90;;
54679;SDS011;40578;53.178;5.846;2023-07-13T01:16:36;3.80;;;0.85;;
54679;SDS011;40578;53.178;5.846;2023-07-13T01:19:12;4.88;;;1.20;;
54679;SDS011;40578;53.178;5.846;2023-07-13T01:21:50;1.35;;;0.63;;
54679;SDS011;40578;53.178;5.846;2023-07-13T01:24:17;5.07;;;1.00;;
54679;SDS011;40578;53.178;5.846;2023-07-13T01:26:43;4.87;;;1.10;;
54679;SDS011;40578;53.178;5.846;2023-07-13T01:29:08;2.40;;;1.00;;
54679;SDS011;40578;53.178;5.846;2023-07-13T01:31:34;3.90;;;1.20;;
54679;SDS011;40578;53.178;5.846;2023-07-13T01:34:00;4.53;;;0.93;;
54679;SDS011;40578;53.178;5.846;2023-07-13T01:36:25;4.70;;;1.20;;
54679;SDS011;40578;53.178;5.846;2023-07-13T01:38:51;4.87;;;1.30;;
54679;SDS011;40578;53.178;5.846;2023-07-13T01:41:17;5.37;;;1.63;;
54679;SDS011;40578;53.178;5.846;2023-07-13T01:43:42;3.83;;;1.40;;
54679;SDS011;40578;53.178;5.846;2023-07-13T01:46:08;5.07;;;1.20;;
54679;SDS011;40578;53.178;5.846;2023-07-13T01:48:34;6.07;;;1.43;;
54679;SDS011;40578;53.178;5.846;2023-07-13T01:50:59;5.43;;;1.60;;
54679;SDS011;40578;53.178;5.846;2023-07-13T01:53:25;5.70;;;1.63;;
54679;SDS011;40578;53.178;5.846;2023-07-13T01:55:51;6.87;;;1.60;;
54679;SDS011;40578;53.178;5.846;2023-07-13T01:58:16;5.00;;;1.50;;
54679;SDS011;40578;53.178;5.846;2023-07-13T02:00:42;4.70;;;1.40;;
54679;SDS011;40578;53.178;5.846;2023-07-13T02:03:07;6.73;;;2.17;;
54679;SDS011;40578;53.178;5.846;2023-07-13T02:05:33;8.17;;;1.80;;
54679;SDS011;40578;53.178;5.846;2023-07-13T02:07:59;6.37;;;1.90;;
54679;SDS011;40578;53.178;5.846;2023-07-13T02:10:24;5.63;;;2.07;;
54679;SDS011;40578;53.178;5.846;2023-07-13T02:12:50;8.50;;;1.90;;
54679;SDS011;40578;53.178;5.846;2023-07-13T02:15:16;4.63;;;1.80;;
54679;SDS011;40578;53.178;5.846;2023-07-13T02:17:42;5.30;;;1.88;;
54679;SDS011;40578;53.178;5.846;2023-07-13T02:20:08;5.50;;;2.13;;
54679;SDS011;40578;53.178;5.846;2023-07-13T02:22:34;4.93;;;1.65;;
54679;SDS011;40578;53.178;5.846;2023-07-13T02:25:00;4.97;;;1.83;;
54679;SDS011;40578;53.178;5.846;2023-07-13T02:27:26;4.75;;;1.55;;
54679;SDS011;40578;53.178;5.846;2023-07-13T02:29:52;10.17;;;2.20;;
54679;SDS011;40578;53.178;5.846;2023-07-13T02:32:18;4.93;;;1.80;;
54679;SDS011;40578;53.178;5.846;2023-07-13T02:34:44;7.27;;;2.00;;
54679;SDS011;40578;53.178;5.846;2023-07-13T02:37:10;4.43;;;1.70;;
54679;SDS011;40578;53.178;5.846;2023-07-13T02:39:35;5.77;;;2.00;;
54679;SDS011;40578;53.178;5.846;2023-07-13T02:42:01;18.20;;;3.63;;
54679;SDS011;40578;53.178;5.846;2023-07-13T02:44:27;9.80;;;3.07;;
54679;SDS011;40578;53.178;5.846;2023-07-13T02:46:53;11.17;;;2.70;;
54679;SDS011;40578;53.178;5.846;2023-07-13T02:49:18;8.30;;;2.80;;
54679;SDS011;40578;53.178;5.846;2023-07-13T02:51:44;7.77;;;2.97;;
54679;SDS011;40578;53.178;5.846;2023-07-13T02:54:09;8.93;;;2.87;;
54679;SDS011;40578;53.178;5.846;2023-07-13T02:56:37;12.95;;;2.70;;
54679;SDS011;40578;53.178;5.846;2023-07-13T02:59:04;9.45;;;2.88;;
54679;SDS011;40578;53.178;5.846;2023-07-13T03:01:29;11.03;;;3.20;;
54679;SDS011;40578;53.178;5.846;2023-07-13T03:03:57;8.43;;;3.10;;
54679;SDS011;40578;53.178;5.846;2023-07-13T03:06:23;10.47;;;3.37;;
54679;SDS011;40578;53.178;5.846;2023-07-13T03:08:49;16.40;;;3.55;;
54679;SDS011;40578;53.178;5.846;2023-07-13T03:11:18;9.43;;;3.80;;
54679;SDS011;40578;53.178;5.846;2023-07-13T03:13:45;9.95;;;3.42;;
54679;SDS011;40578;53.178;5.846;2023-07-13T03:16:11;8.73;;;3.55;;
54679;SDS011;40578;53.178;5.846;2023-07-13T03:18:37;13.50;;;3.70;;
54679;SDS011;40578;53.178;5.846;2023-07-13T03:21:03;14.98;;;4.18;;
54679;SDS011;40578;53.178;5.846;2023-07-13T03:23:30;10.95;;;3.60;;
54679;SDS011;40578;53.178;5.846;2023-07-13T03:26:03;14.63;;;4.40;;
54679;SDS011;40578;53.178;5.846;2023-07-13T03:28:38;11.20;;;4.40;;
54679;SDS011;40578;53.178;5.846;2023-07-13T03:31:26;13.52;;;4.53;;
54679;SDS011;40578;53.178;5.846;2023-07-13T03:33:51;19.05;;;4.55;;
54679;SDS011;40578;53.178;5.846;2023-07-13T03:36:21;12.60;;;5.03;;
54679;SDS011;40578;53.178;5.846;2023-07-13T03:38:49;10.73;;;4.95;;
54679;SDS011;40578;53.178;5.846;2023-07-13T03:41:17;14.82;;;4.80;;
54679;SDS011;40578;53.178;5.846;2023-07-13T03:43:43;16.80;;;5.05;;
54679;SDS011;40578;53.178;5.846;2023-07-13T03:46:09;16.90;;;4.67;;
54679;SDS011;40578;53.178;5.846;2023-07-13T03:48:34;15.48;;;5.32;;
54679;SDS011;40578;53.178;5.846;2023-07-13T03:51:00;10.73;;;4.70;;
54679;SDS011;40578;53.178;5.846;2023-07-13T03:53:26;13.52;;;4.90;;
54679;SDS011;40578;53.178;5.846;2023-07-13T03:55:52;13.43;;;4.90;;
54679;SDS011;40578;53.178;5.846;2023-07-13T03:58:25;12.13;;;4.97;;
54679;SDS011;40578;53.178;5.846;2023-07-13T04:00:53;9.98;;;4.70;;
54679;SDS011;40578;53.178;5.846;2023-07-13T04:05:45;11.82;;;4.97;;
54679;SDS011;40578;53.178;5.846;2023-07-13T04:08:11;12.63;;;5.20;;
54679;SDS011;40578;53.178;5.846;2023-07-13T04:10:37;13.63;;;5.00;;
54679;SDS011;40578;53.178;5.846;2023-07-13T04:13:03;12.25;;;4.90;;
54679;SDS011;40578;53.178;5.846;2023-07-13T04:15:30;12.82;;;5.35;;
54679;SDS011;40578;53.178;5.846;2023-07-13T04:17:56;11.52;;;4.95;;
54679;SDS011;40578;53.178;5.846;2023-07-13T04:20:22;13.00;;;4.83;;
54679;SDS011;40578;53.178;5.846;2023-07-13T04:22:49;11.00;;;4.70;;
54679;SDS011;40578;53.178;5.846;2023-07-13T04:25:15;12.50;;;5.03;;
54679;SDS011;40578;53.178;5.846;2023-07-13T04:27:40;12.25;;;4.80;;
54679;SDS011;40578;53.178;5.846;2023-07-13T04:30:06;8.53;;;4.63;;
54679;SDS011;40578;53.178;5.846;2023-07-13T04:32:32;13.25;;;5.15;;
54679;SDS011;40578;53.178;5.846;2023-07-13T04:34:58;12.93;;;5.40;;
54679;SDS011;40578;53.178;5.846;2023-07-13T04:37:24;13.83;;;5.40;;
54679;SDS011;40578;53.178;5.846;2023-07-13T04:39:51;18.35;;;6.03;;
54679;SDS011;40578;53.178;5.846;2023-07-13T04:42:16;14.37;;;5.60;;
54679;SDS011;40578;53.178;5.846;2023-07-13T04:44:47;13.40;;;6.20;;
54679;SDS011;40578;53.178;5.846;2023-07-13T04:47:16;10.40;;;5.75;;
54679;SDS011;40578;53.178;5.846;2023-07-13T04:49:42;12.10;;;6.13;;
54679;SDS011;40578;53.178;5.846;2023-07-13T04:52:08;14.50;;;6.03;;
54679;SDS011;40578;53.178;5.846;2023-07-13T04:54:34;13.33;;;5.37;;
54679;SDS011;40578;53.178;5.846;2023-07-13T04:57:00;9.88;;;5.32;;
54679;SDS011;40578;53.178;5.846;2023-07-13T04:59:26;14.05;;;5.65;;
54679;SDS011;40578;53.178;5.846;2023-07-13T05:01:52;8.25;;;4.88;;
54679;SDS011;40578;53.178;5.846;2023-07-13T05:04:18;8.98;;;4.65;;
54679;SDS011;40578;53.178;5.846;2023-07-13T05:06:43;8.43;;;4.37;;
54679;SDS011;40578;53.178;5.846;2023-07-13T05:09:09;12.37;;;4.70;;
54679;SDS011;40578;53.178;5.846;2023-07-13T05:11:35;11.40;;;4.30;;
54679;SDS011;40578;53.178;5.846;2023-07-13T05:14:00;8.37;;;4.10;;
54679;SDS011;40578;53.178;5.846;2023-07-13T05:16:26;8.70;;;3.70;;
54679;SDS011;40578;53.178;5.846;2023-07-13T05:18:52;11.02;;;4.07;;
54679;SDS011;40578;53.178;5.846;2023-07-13T05:21:21;9.65;;;4.18;;
54679;SDS011;40578;53.178;5.846;2023-07-13T05:23:47;9.37;;;3.83;;
54679;SDS011;40578;53.178;5.846;2023-07-13T05:26:13;6.63;;;3.47;;
54679;SDS011;40578;53.178;5.846;2023-07-13T05:28:38;11.83;;;3.90;;
54679;SDS011;40578;53.178;5.846;2023-07-13T05:31:04;10.17;;;3.27;;
54679;SDS011;40578;53.178;5.846;2023-07-13T05:33:32;10.52;;;2.90;;
54679;SDS011;40578;53.178;5.846;2023-07-13T05:35:57;5.93;;;2.63;;
54679;SDS011;40578;53.178;5.846;2023-07-13T05:38:25;8.77;;;2.63;;
54679;SDS011;40578;53.178;5.846;2023-07-13T05:40:53;8.70;;;2.80;;
54679;SDS011;40578;53.178;5.846;2023-07-13T05:43:19;4.25;;;2.28;;
54679;SDS011;40578;53.178;5.846;2023-07-13T05:45:44;8.43;;;2.50;;
54679;SDS011;40578;53.178;5.846;2023-07-13T05:48:10;8.13;;;2.60;;
54679;SDS011;40578;53.178;5.846;2023-07-13T05:50:36;7.13;;;2.97;;
54679;SDS011;40578;53.178;5.846;2023-07-13T05:53:02;7.03;;;2.73;;
54679;SDS011;40578;53.178;5.846;2023-07-13T05:55:27;5.75;;;2.80;;
54679;SDS011;40578;53.178;5.846;2023-07-13T05:57:53;6.57;;;2.47;;
54679;SDS011;40578;53.178;5.846;2023-07-13T06:00:19;4.10;;;2.47;;
54679;SDS011;40578;53.178;5.846;2023-07-13T06:02:45;5.97;;;2.50;;
54679;SDS011;40578;53.178;5.846;2023-07-13T06:05:10;7.40;;;2.53;;
54679;SDS011;40578;53.178;5.846;2023-07-13T06:07:36;5.90;;;2.13;;
54679;SDS011;40578;53.178;5.846;2023-07-13T06:10:03;6.72;;;2.00;;
54679;SDS011;40578;53.178;5.846;2023-07-13T06:12:28;7.20;;;2.30;;
54679;SDS011;40578;53.178;5.846;2023-07-13T06:14:54;3.10;;;1.70;;
54679;SDS011;40578;53.178;5.846;2023-07-13T06:17:20;7.20;;;2.10;;
54679;SDS011;40578;53.178;5.846;2023-07-13T06:19:45;4.10;;;1.80;;
54679;SDS011;40578;53.178;5.846;2023-07-13T06:22:11;8.07;;;2.57;;
54679;SDS011;40578;53.178;5.846;2023-07-13T06:24:36;5.43;;;2.17;;
54679;SDS011;40578;53.178;5.846;2023-07-13T06:27:02;9.00;;;2.53;;
54679;SDS011;40578;53.178;5.846;2023-07-13T06:29:28;9.65;;;2.65;;
54679;SDS011;40578;53.178;5.846;2023-07-13T06:31:53;8.80;;;2.57;;
54679;SDS011;40578;53.178;5.846;2023-07-13T06:34:19;8.63;;;2.47;;
54679;SDS011;40578;53.178;5.846;2023-07-13T06:36:45;5.43;;;1.90;;
54679;SDS011;40578;53.178;5.846;2023-07-13T06:39:10;5.33;;;1.83;;
54679;SDS011;40578;53.178;5.846;2023-07-13T06:41:36;6.37;;;1.80;;
54679;SDS011;40578;53.178;5.846;2023-07-13T06:44:03;3.60;;;1.63;;
54679;SDS011;40578;53.178;5.846;2023-07-13T06:46:29;6.57;;;1.50;;
54679;SDS011;40578;53.178;5.846;2023-07-13T06:48:55;5.27;;;1.60;;
54679;SDS011;40578;53.178;5.846;2023-07-13T06:51:21;3.53;;;1.50;;
54679;SDS011;40578;53.178;5.846;2023-07-13T06:53:48;5.70;;;1.80;;
54679;SDS011;40578;53.178;5.846;2023-07-13T06:56:16;5.60;;;1.58;;
54679;SDS011;40578;53.178;5.846;2023-07-13T06:58:41;2.33;;;1.20;;
54679;SDS011;40578;53.178;5.846;2023-07-13T07:01:07;4.10;;;1.30;;
54679;SDS011;40578;53.178;5.846;2023-07-13T07:03:33;3.20;;;1.30;;
54679;SDS011;40578;53.178;5.846;2023-07-13T07:06:00;6.03;;;1.50;;
54679;SDS011;40578;53.178;5.846;2023-07-13T07:08:43;2.67;;;1.35;;
54679;SDS011;40578;53.178;5.846;2023-07-13T07:11:17;3.05;;;1.20;;
54679;SDS011;40578;53.178;5.846;2023-07-13T07:13:45;3.15;;;1.40;;
54679;SDS011;40578;53.178;5.846;2023-07-13T07:16:10;4.20;;;1.42;;
54679;SDS011;40578;53.178;5.846;2023-07-13T07:18:36;5.18;;;1.38;;
54679;SDS011;40578;53.178;5.846;2023-07-13T07:21:02;4.47;;;1.67;;
54679;SDS011;40578;53.178;5.846;2023-07-13T07:23:28;3.43;;;1.27;;
54679;SDS011;40578;53.178;5.846;2023-07-13T07:25:53;2.53;;;1.30;;
54679;SDS011;40578;53.178;5.846;2023-07-13T07:28:19;3.80;;;1.30;;
54679;SDS011;40578;53.178;5.846;2023-07-13T07:30:45;4.38;;;1.70;;
54679;SDS011;40578;53.178;5.846;2023-07-13T07:35:40;4.30;;;1.50;;
54679;SDS011;40578;53.178;5.846;2023-07-13T07:38:05;4.63;;;1.92;;
54679;SDS011;40578;53.178;5.846;2023-07-13T07:40:36;3.80;;;1.40;;
54679;SDS011;40578;53.178;5.846;2023-07-13T07:43:03;6.10;;;1.73;;
54679;SDS011;40578;53.178;5.846;2023-07-13T07:45:28;8.47;;;2.03;;
54679;SDS011;40578;53.178;5.846;2023-07-13T07:47:55;4.60;;;1.57;;
54679;SDS011;40578;53.178;5.846;2023-07-13T07:50:24;3.65;;;1.77;;
54679;SDS011;40578;53.178;5.846;2023-07-13T07:52:51;5.10;;;1.80;;
54679;SDS011;40578;53.178;5.846;2023-07-13T07:55:17;7.07;;;2.13;;
54679;SDS011;40578;53.178;5.846;2023-07-13T07:57:42;5.45;;;1.70;;
54679;SDS011;40578;53.178;5.846;2023-07-13T08:00:08;5.93;;;2.30;;
54679;SDS011;40578;53.178;5.846;2023-07-13T08:02:34;5.95;;;2.38;;
54679;SDS011;40578;53.178;5.846;2023-07-13T08:05:00;4.70;;;1.90;;
54679;SDS011;40578;53.178;5.846;2023-07-13T08:07:26;6.27;;;1.73;;
54679;SDS011;40578;53.178;5.846;2023-07-13T08:09:54;4.23;;;2.10;;
54679;SDS011;40578;53.178;5.846;2023-07-13T08:12:20;5.18;;;1.67;;
54679;SDS011;40578;53.178;5.846;2023-07-13T08:14:45;4.37;;;1.80;;
54679;SDS011;40578;53.178;5.846;2023-07-13T08:17:18;4.70;;;2.00;;
54679;SDS011;40578;53.178;5.846;2023-07-13T08:19:47;6.22;;;2.30;;
54679;SDS011;40578;53.178;5.846;2023-07-13T08:22:13;5.17;;;1.83;;
54679;SDS011;40578;53.178;5.846;2023-07-13T08:24:38;3.77;;;1.63;;
54679;SDS011;40578;53.178;5.846;2023-07-13T08:27:04;5.97;;;2.07;;
54679;SDS011;40578;53.178;5.846;2023-07-13T08:29:30;4.47;;;1.53;;
54679;SDS011;40578;53.178;5.846;2023-07-13T08:31:58;4.53;;;2.10;;
54679;SDS011;40578;53.178;5.846;2023-07-13T08:34:24;4.67;;;1.90;;
54679;SDS011;40578;53.178;5.846;2023-07-13T08:36:50;4.57;;;1.80;;
54679;SDS011;40578;53.178;5.846;2023-07-13T08:39:15;5.00;;;1.70;;
54679;SDS011;40578;53.178;5.846;2023-07-13T08:41:41;3.83;;;1.60;;
54679;SDS011;40578;53.178;5.846;2023-07-13T08:44:27;3.88;;;1.30;;
54679;SDS011;40578;53.178;5.846;2023-07-13T08:47:05;5.28;;;1.40;;
54679;SDS011;40578;53.178;5.846;2023-07-13T08:49:32;5.22;;;1.50;;
54679;SDS011;40578;53.178;5.846;2023-07-13T08:54:32;3.67;;;1.10;;
54679;SDS011;40578;53.178;5.846;2023-07-13T08:57:16;3.95;;;1.30;;
54679;SDS011;40578;53.178;5.846;2023-07-13T08:59:44;3.58;;;1.20;;
54679;SDS011;40578;53.178;5.846;2023-07-13T09:02:18;4.13;;;1.40;;
54679;SDS011;40578;53.178;5.846;2023-07-13T09:15:24;3.92;;;1.35;;
54679;SDS011;40578;53.178;5.846;2023-07-13T09:17:57;3.45;;;1.30;;
54679;SDS011;40578;53.178;5.846;2023-07-13T09:20:35;3.25;;;1.20;;
54679;SDS011;40578;53.178;5.846;2023-07-13T09:23:09;3.63;;;1.38;;
54679;SDS011;40578;53.178;5.846;2023-07-13T09:25:42;4.07;;;1.45;;
54679;SDS011;40578;53.178;5.846;2023-07-13T09:28:19;5.10;;;1.50;;
54679;SDS011;40578;53.178;5.846;2023-07-13T09:30:53;3.30;;;1.17;;
54679;SDS011;40578;53.178;5.846;2023-07-13T09:33:32;3.05;;;1.10;;
54679;SDS011;40578;53.178;5.846;2023-07-13T09:36:00;3.45;;;1.15;;
54679;SDS011;40578;53.178;5.846;2023-07-13T09:38:27;2.83;;;0.90;;
54679;SDS011;40578;53.178;5.846;2023-07-13T09:46:31;2.40;;;1.10;;
54679;SDS011;40578;53.178;5.846;2023-07-13T09:48:57;1.83;;;0.90;;
54679;SDS011;40578;53.178;5.846;2023-07-13T09:51:22;2.10;;;0.90;;
54679;SDS011;40578;53.178;5.846;2023-07-13T09:53:48;3.70;;;1.00;;
54679;SDS011;40578;53.178;5.846;2023-07-13T09:56:22;3.13;;;1.13;;
54679;SDS011;40578;53.178;5.846;2023-07-13T09:58:49;4.28;;;1.10;;
54679;SDS011;40578;53.178;5.846;2023-07-13T10:01:15;3.90;;;1.42;;
54679;SDS011;40578;53.178;5.846;2023-07-13T10:06:20;5.47;;;1.60;;
54679;SDS011;40578;53.178;5.846;2023-07-13T10:08:47;4.35;;;1.40;;
54679;SDS011;40578;53.178;5.846;2023-07-13T10:11:26;5.68;;;1.73;;
54679;SDS011;40578;53.178;5.846;2023-07-13T10:13:59;4.20;;;1.48;;
54679;SDS011;40578;53.178;5.846;2023-07-13T10:16:37;4.32;;;1.45;;
54679;SDS011;40578;53.178;5.846;2023-07-13T10:19:05;3.70;;;1.60;;
54679;SDS011;40578;53.178;5.846;2023-07-13T10:24:48;5.25;;;1.88;;
54679;SDS011;40578;53.178;5.846;2023-07-13T10:27:17;3.47;;;1.60;;
54679;SDS011;40578;53.178;5.846;2023-07-13T10:30:07;4.93;;;2.17;;
54679;SDS011;40578;53.178;5.846;2023-07-13T10:32:48;4.25;;;1.77;;
54679;SDS011;40578;53.178;5.846;2023-07-13T10:35:16;5.00;;;1.88;;
54679;SDS011;40578;53.178;5.846;2023-07-13T10:37:48;5.65;;;1.85;;
54679;SDS011;40578;53.178;5.846;2023-07-13T10:40:37;4.93;;;1.67;;
54679;SDS011;40578;53.178;5.846;2023-07-13T10:43:50;4.38;;;1.83;;
54679;SDS011;40578;53.178;5.846;2023-07-13T10:46:04;3.92;;;1.48;;
54679;SDS011;40578;53.178;5.846;2023-07-13T10:48:33;5.80;;;1.70;;
54679;SDS011;40578;53.178;5.846;2023-07-13T10:51:01;4.55;;;1.38;;
54679;SDS011;40578;53.178;5.846;2023-07-13T10:53:32;6.05;;;1.80;;
54679;SDS011;40578;53.178;5.846;2023-07-13T10:56:03;4.25;;;1.70;;
54679;SDS011;40578;53.178;5.846;2023-07-13T10:58:41;4.80;;;1.50;;
54679;SDS011;40578;53.178;5.846;2023-07-13T11:01:09;6.18;;;1.83;;
54679;SDS011;40578;53.178;5.846;2023-07-13T11:04:01;3.92;;;1.45;;
54679;SDS011;40578;53.178;5.846;2023-07-13T11:08:59;5.40;;;1.60;;
54679;SDS011;40578;53.178;5.846;2023-07-13T11:11:47;5.65;;;1.60;;
54679;SDS011;40578;53.178;5.846;2023-07-13T11:14:35;6.47;;;1.90;;
54679;SDS011;40578;53.178;5.846;2023-07-13T11:22:52;7.57;;;2.03;;
54679;SDS011;40578;53.178;5.846;2023-07-13T11:25:42;4.95;;;2.00;;
54679;SDS011;40578;53.178;5.846;2023-07-13T11:33:10;6.50;;;1.75;;
54679;SDS011;40578;53.178;5.846;2023-07-13T11:38:19;4.75;;;1.25;;
54679;SDS011;40578;53.178;5.846;2023-07-13T11:40:58;4.90;;;1.70;;
54679;SDS011;40578;53.178;5.846;2023-07-13T11:43:28;6.43;;;1.70;;
54679;SDS011;40578;53.178;5.846;2023-07-13T11:45:54;7.25;;;1.63;;
54679;SDS011;40578;53.178;5.846;2023-07-13T11:48:21;7.30;;;2.17;;
54679;SDS011;40578;53.178;5.846;2023-07-13T11:50:53;5.13;;;1.30;;
54679;SDS011;40578;53.178;5.846;2023-07-13T11:53:22;4.65;;;1.33;;
54679;SDS011;40578;53.178;5.846;2023-07-13T11:55:50;4.07;;;1.45;;
54679;SDS011;40578;53.178;5.846;2023-07-13T11:58:17;4.80;;;1.67;;
54679;SDS011;40578;53.178;5.846;2023-07-13T12:00:48;3.63;;;1.20;;
54679;SDS011;40578;53.178;5.846;2023-07-13T12:03:14;5.85;;;1.65;;
54679;SDS011;40578;53.178;5.846;2023-07-13T12:05:54;3.67;;;1.20;;
54679;SDS011;40578;53.178;5.846;2023-07-13T12:08:26;6.55;;;1.90;;
54679;SDS011;40578;53.178;5.846;2023-07-13T12:11:05;6.10;;;1.70;;
54679;SDS011;40578;53.178;5.846;2023-07-13T12:13:39;5.63;;;1.67;;
54679;SDS011;40578;53.178;5.846;2023-07-13T12:16:10;2.80;;;1.30;;
54679;SDS011;40578;53.178;5.846;2023-07-13T12:18:41;5.28;;;1.50;;
54679;SDS011;40578;53.178;5.846;2023-07-13T12:21:12;6.00;;;1.42;;
54679;SDS011;40578;53.178;5.846;2023-07-13T12:23:39;9.68;;;2.42;;
54679;SDS011;40578;53.178;5.846;2023-07-13T12:26:09;6.10;;;1.75;;
54679;SDS011;40578;53.178;5.846;2023-07-13T12:28:43;6.72;;;1.90;;
54679;SDS011;40578;53.178;5.846;2023-07-13T12:34:16;7.78;;;1.98;;
54679;SDS011;40578;53.178;5.846;2023-07-13T12:39:18;4.32;;;2.30;;
54679;SDS011;40578;53.178;5.846;2023-07-13T12:41:45;7.38;;;2.33;;
54679;SDS011;40578;53.178;5.846;2023-07-13T12:44:12;5.72;;;2.08;;
54679;SDS011;40578;53.178;5.846;2023-07-13T12:46:52;7.80;;;2.50;;
54679;SDS011;40578;53.178;5.846;2023-07-13T12:49:21;5.72;;;2.00;;
54679;SDS011;40578;53.178;5.846;2023-07-13T12:51:50;5.57;;;2.17;;
54679;SDS011;40578;53.178;5.846;2023-07-13T12:54:20;5.63;;;2.15;;
54679;SDS011;40578;53.178;5.846;2023-07-13T12:56:48;8.05;;;2.30;;
54679;SDS011;40578;53.178;5.846;2023-07-13T12:59:18;6.57;;;2.15;;
54679;SDS011;40578;53.178;5.846;2023-07-13T13:01:46;9.38;;;2.80;;
54679;SDS011;40578;53.178;5.846;2023-07-13T13:06:38;7.70;;;2.38;;
54679;SDS011;40578;53.178;5.846;2023-07-13T13:09:06;6.72;;;2.10;;
54679;SDS011;40578;53.178;5.846;2023-07-13T13:11:38;6.85;;;2.13;;
54679;SDS011;40578;53.178;5.846;2023-07-13T13:14:05;6.88;;;2.30;;
54679;SDS011;40578;53.178;5.846;2023-07-13T13:16:33;8.48;;;2.97;;
54679;SDS011;40578;53.178;5.846;2023-07-13T13:19:18;7.53;;;2.45;;
54679;SDS011;40578;53.178;5.846;2023-07-13T13:21:47;8.88;;;2.38;;
54679;SDS011;40578;53.178;5.846;2023-07-13T13:24:14;6.72;;;2.25;;
54679;SDS011;40578;53.178;5.846;2023-07-13T13:26:42;5.75;;;2.30;;
54679;SDS011;40578;53.178;5.846;2023-07-13T13:29:11;7.72;;;1.92;;
54679;SDS011;40578;53.178;5.846;2023-07-13T13:31:42;8.05;;;2.17;;
54679;SDS011;40578;53.178;5.846;2023-07-13T13:34:12;7.38;;;2.13;;
54679;SDS011;40578;53.178;5.846;2023-07-13T13:36:39;5.45;;;1.80;;
54679;SDS011;40578;53.178;5.846;2023-07-13T13:41:40;5.65;;;2.30;;
54679;SDS011;40578;53.178;5.846;2023-07-13T13:44:08;7.23;;;1.80;;
54679;SDS011;40578;53.178;5.846;2023-07-13T13:46:35;6.63;;;1.90;;
54679;SDS011;40578;53.178;5.846;2023-07-13T13:49:00;5.88;;;2.35;;
54679;SDS011;40578;53.178;5.846;2023-07-13T13:51:27;5.47;;;1.85;;
54679;SDS011;40578;53.178;5.846;2023-07-13T13:56:19;5.72;;;1.88;;
54679;SDS011;40578;53.178;5.846;2023-07-13T13:58:45;5.68;;;1.55;;
54679;SDS011;40578;53.178;5.846;2023-07-13T14:01:16;6.40;;;2.27;;
54679;SDS011;40578;53.178;5.846;2023-07-13T14:03:44;9.27;;;2.42;;
54679;SDS011;40578;53.178;5.846;2023-07-13T14:06:14;7.38;;;2.28;;
54679;SDS011;40578;53.178;5.846;2023-07-13T14:08:41;5.85;;;2.20;;
54679;SDS011;40578;53.178;5.846;2023-07-13T14:11:09;7.50;;;2.40;;
54679;SDS011;40578;53.178;5.846;2023-07-13T14:13:44;6.60;;;2.10;;
54679;SDS011;40578;53.178;5.846;2023-07-13T14:16:17;6.33;;;2.67;;
54679;SDS011;40578;53.178;5.846;2023-07-13T14:18:44;6.70;;;2.00;;
54679;SDS011;40578;53.178;5.846;2023-07-13T14:21:11;6.47;;;2.30;;
54679;SDS011;40578;53.178;5.846;2023-07-13T14:23:43;6.88;;;2.47;;
54679;SDS011;40578;53.178;5.846;2023-07-13T14:26:10;5.50;;;2.30;;
54679;SDS011;40578;53.178;5.846;2023-07-13T14:28:38;10.20;;;2.47;;
54679;SDS011;40578;53.178;5.846;2023-07-13T14:31:08;8.40;;;2.40;;
54679;SDS011;40578;53.178;5.846;2023-07-13T14:33:34;5.53;;;2.13;;
54679;SDS011;40578;53.178;5.846;2023-07-13T14:36:00;7.27;;;2.63;;
54679;SDS011;40578;53.178;5.846;2023-07-13T14:38:26;6.90;;;2.05;;
54679;SDS011;40578;53.178;5.846;2023-07-13T14:40:52;5.23;;;2.00;;
54679;SDS011;40578;53.178;5.846;2023-07-13T14:43:18;8.33;;;1.83;;
54679;SDS011;40578;53.178;5.846;2023-07-13T14:45:44;7.43;;;2.10;;
54679;SDS011;40578;53.178;5.846;2023-07-13T14:48:19;6.80;;;2.25;;
54679;SDS011;40578;53.178;5.846;2023-07-13T14:50:56;12.02;;;2.58;;
54679;SDS011;40578;53.178;5.846;2023-07-13T14:53:24;5.82;;;2.05;;
54679;SDS011;40578;53.178;5.846;2023-07-13T14:55:51;8.73;;;2.08;;
54679;SDS011;40578;53.178;5.846;2023-07-13T14:58:17;7.13;;;2.20;;
54679;SDS011;40578;53.178;5.846;2023-07-13T15:00:43;9.20;;;2.30;;
54679;SDS011;40578;53.178;5.846;2023-07-13T15:03:18;10.75;;;2.55;;
54679;SDS011;40578;53.178;5.846;2023-07-13T15:05:46;7.35;;;2.03;;
54679;SDS011;40578;53.178;5.846;2023-07-13T15:10:40;9.37;;;2.10;;
54679;SDS011;40578;53.178;5.846;2023-07-13T15:13:18;6.00;;;1.90;;
54679;SDS011;40578;53.178;5.846;2023-07-13T15:15:46;7.28;;;2.22;;
54679;SDS011;40578;53.178;5.846;2023-07-13T15:18:14;5.55;;;2.08;;
54679;SDS011;40578;53.178;5.846;2023-07-13T15:20:42;6.25;;;2.25;;
54679;SDS011;40578;53.178;5.846;2023-07-13T15:23:11;9.35;;;2.33;;
54679;SDS011;40578;53.178;5.846;2023-07-13T15:25:37;10.32;;;3.13;;
54679;SDS011;40578;53.178;5.846;2023-07-13T15:28:06;7.68;;;2.53;;
54679;SDS011;40578;53.178;5.846;2023-07-13T15:30:36;9.02;;;2.47;;
54679;SDS011;40578;53.178;5.846;2023-07-13T15:33:27;8.90;;;2.47;;
54679;SDS011;40578;53.178;5.846;2023-07-13T15:35:54;8.65;;;2.33;;
54679;SDS011;40578;53.178;5.846;2023-07-13T15:38:23;4.43;;;2.25;;
54679;SDS011;40578;53.178;5.846;2023-07-13T15:40:50;5.65;;;2.20;;
54679;SDS011;40578;53.178;5.846;2023-07-13T15:43:18;8.82;;;2.88;;
54679;SDS011;40578;53.178;5.846;2023-07-13T15:45:44;8.00;;;3.08;;
54679;SDS011;40578;53.178;5.846;2023-07-13T15:48:18;10.35;;;2.60;;
54679;SDS011;40578;53.178;5.846;2023-07-13T15:50:51;5.97;;;2.30;;
54679;SDS011;40578;53.178;5.846;2023-07-13T15:53:23;9.15;;;2.10;;